Terminal Aerodrome Forecast
Issued by NWS

Home | Current Version | Previous Version | Graphics & Text | Print | Product List | Glossary On
Versions: 1 2 3 4 5 6 7 8 9 10 11 12 13 14 15 16 17 18
000
FTUS43 KMPX 241700
TAFRNH
TAF
KRNH 241720Z 2418/2518 15005KT P6SM SCT050 SCT250
     FM242100 17007KT P6SM FEW120 BKN200
     FM250100 15006KT P6SM BKN080
     FM250800 14010KT P6SM -SHRA OVC050 PROB30 2508/2512 5SM -TSRA
      OVC040CB
     FM251200 14010KT P6SM SCT020 BKN040=

USA.gov is the U.S. government's official web portal to all federal, state and local government web resources and services.